MAS787 VTSP-WMKK
Flight info
| Callsign | MAS787 |
|---|---|
| Flight time | 1h 8m |
| Altitude | 37000 |
| Route | REBED1A REBED B579 VPL Y503 RINBA Y507 KAKAK KAKAK1J |
| Aircraft | B38M/M-SDE1FGHILORVWXY/HB1 |
Departure
| Time | 2026-05-06 09:43 |
|---|---|
| Airport | Phuket International Airport (VTSP) |
Arrival
| Time | 2026-05-06 10:51 |
|---|---|
| Airport | Kuala Lumpur International Airport (WMKK) |
| Time | Latitude | Longitude | Altitude | Speed | Heading |
|---|---|---|---|---|---|
| 2026-05-06 09:15 | 8.10779 | 98.30516 | 30 ft | 0 kts | 105° |
| 2026-05-06 09:34 | 8.10779 | 98.30515 | 57 ft | 1 kts | 105° |
| 2026-05-06 09:34 | 8.10783 | 98.30497 | 30 ft | 3 kts | 98° |
| 2026-05-06 09:34 | 8.10785 | 98.30477 | 30 ft | 3 kts | 86° |
| 2026-05-06 09:34 | 8.10782 | 98.30457 | 29 ft | 3 kts | 72° |
| 2026-05-06 09:35 | 8.10775 | 98.30442 | 29 ft | 1 kts | 61° |
| 2026-05-06 09:35 | 8.10775 | 98.30441 | 29 ft | 1 kts | 60° |
| 2026-05-06 09:39 | 8.10777 | 98.30443 | 29 ft | 1 kts | 41° |
| 2026-05-06 09:39 | 8.10792 | 98.30448 | 29 ft | 4 kts | 9° |
| 2026-05-06 09:39 | 8.10838 | 98.30441 | 29 ft | 9 kts | 2° |
| 2026-05-06 09:40 | 8.10895 | 98.30453 | 29 ft | 7 kts | 14° |
| 2026-05-06 09:40 | 8.10954 | 98.30468 | 30 ft | 10 kts | 14° |
| 2026-05-06 09:40 | 8.11126 | 98.30512 | 30 ft | 15 kts | 5° |
| 2026-05-06 09:41 | 8.11207 | 98.30519 | 30 ft | 3 kts | 39° |
| 2026-05-06 09:41 | 8.11215 | 98.30536 | 30 ft | 2 kts | 77° |
| 2026-05-06 09:41 | 8.11216 | 98.30552 | 30 ft | 3 kts | 85° |
| 2026-05-06 09:41 | 8.11216 | 98.30553 | 30 ft | 0 kts | 85° |
| 2026-05-06 09:42 | 8.11217 | 98.30567 | 30 ft | 9 kts | 84° |
| 2026-05-06 09:42 | 8.11244 | 98.30843 | 31 ft | 80 kts | 84° |
| 2026-05-06 09:42 | 8.11325 | 98.31670 | 57 ft | 151 kts | 84° |
| 2026-05-06 09:43 | 8.11455 | 98.32767 | 793 ft | 162 kts | 86° |
| 2026-05-06 09:43 | 8.11551 | 98.33881 | 1835 ft | 160 kts | 88° |
| 2026-05-06 09:43 | 8.11651 | 98.35033 | 2622 ft | 169 kts | 85° |
| 2026-05-06 09:43 | 8.11764 | 98.36285 | 3247 ft | 189 kts | 85° |
| 2026-05-06 09:44 | 8.11890 | 98.37670 | 3919 ft | 207 kts | 84° |
| 2026-05-06 09:44 | 8.12030 | 98.39189 | 4574 ft | 227 kts | 85° |
| 2026-05-06 09:44 | 8.12178 | 98.40818 | 5225 ft | 246 kts | 86° |
| 2026-05-06 09:44 | 8.11882 | 98.42571 | 5832 ft | 268 kts | 116° |
| 2026-05-06 09:45 | 8.10592 | 98.43957 | 6680 ft | 275 kts | 147° |
| 2026-05-06 09:45 | 8.08860 | 98.44807 | 7664 ft | 279 kts | 153° |
| 2026-05-06 09:45 | 8.07087 | 98.45670 | 8538 ft | 286 kts | 152° |
| 2026-05-06 09:45 | 8.05286 | 98.46554 | 9474 ft | 290 kts | 152° |
| 2026-05-06 09:46 | 8.03462 | 98.47453 | 10351 ft | 295 kts | 152° |
| 2026-05-06 09:46 | 8.01575 | 98.48387 | 10942 ft | 311 kts | 152° |
| 2026-05-06 09:46 | 7.99583 | 98.49378 | 11623 ft | 325 kts | 153° |
| 2026-05-06 09:46 | 7.97515 | 98.50404 | 12277 ft | 338 kts | 153° |
| 2026-05-06 09:47 | 7.95379 | 98.51459 | 13101 ft | 341 kts | 153° |
| 2026-05-06 09:47 | 7.93239 | 98.52512 | 13895 ft | 346 kts | 153° |
| 2026-05-06 09:47 | 7.91057 | 98.53585 | 14602 ft | 350 kts | 153° |
| 2026-05-06 09:47 | 7.88857 | 98.54665 | 15322 ft | 353 kts | 153° |
| 2026-05-06 09:48 | 7.86633 | 98.55758 | 16010 ft | 358 kts | 153° |
| 2026-05-06 09:48 | 7.84384 | 98.56862 | 16701 ft | 362 kts | 153° |
| 2026-05-06 09:48 | 7.82133 | 98.57968 | 17376 ft | 365 kts | 153° |
| 2026-05-06 09:48 | 7.79835 | 98.59095 | 18046 ft | 369 kts | 153° |
| 2026-05-06 09:49 | 7.77512 | 98.60235 | 18597 ft | 373 kts | 153° |
| 2026-05-06 09:49 | 7.75172 | 98.61383 | 19159 ft | 375 kts | 153° |
| 2026-05-06 09:49 | 7.72833 | 98.62571 | 19706 ft | 378 kts | 147° |
| 2026-05-06 09:49 | 7.70747 | 98.64184 | 20253 ft | 379 kts | 140° |
| 2026-05-06 09:50 | 7.68684 | 98.65863 | 20763 ft | 383 kts | 140° |
| 2026-05-06 09:50 | 7.66606 | 98.67562 | 21292 ft | 386 kts | 140° |
| 2026-05-06 09:50 | 7.64542 | 98.69256 | 21811 ft | 389 kts | 140° |
| 2026-05-06 09:50 | 7.62434 | 98.70988 | 22329 ft | 392 kts | 140° |
| 2026-05-06 09:51 | 7.60312 | 98.72732 | 22840 ft | 395 kts | 140° |
| 2026-05-06 09:51 | 7.58176 | 98.74487 | 23330 ft | 398 kts | 140° |
| 2026-05-06 09:51 | 7.56025 | 98.76255 | 23757 ft | 400 kts | 140° |
| 2026-05-06 09:51 | 7.53857 | 98.78037 | 24165 ft | 403 kts | 140° |
| 2026-05-06 09:52 | 7.51677 | 98.79827 | 24577 ft | 406 kts | 140° |
| 2026-05-06 09:52 | 7.49486 | 98.81628 | 24981 ft | 408 kts | 140° |
| 2026-05-06 09:52 | 7.47276 | 98.83443 | 25388 ft | 411 kts | 140° |
| 2026-05-06 09:52 | 7.45054 | 98.85266 | 25782 ft | 413 kts | 140° |
| 2026-05-06 09:53 | 7.42818 | 98.87100 | 26174 ft | 416 kts | 140° |
| 2026-05-06 09:53 | 7.40566 | 98.88947 | 26564 ft | 419 kts | 140° |
| 2026-05-06 09:53 | 7.38298 | 98.90806 | 26950 ft | 422 kts | 140° |
| 2026-05-06 09:53 | 7.36013 | 98.92680 | 27333 ft | 424 kts | 140° |
| 2026-05-06 09:54 | 7.33718 | 98.94561 | 27702 ft | 427 kts | 140° |
| 2026-05-06 09:54 | 7.31409 | 98.96454 | 28071 ft | 430 kts | 140° |
| 2026-05-06 09:54 | 7.29082 | 98.98361 | 28434 ft | 432 kts | 140° |
| 2026-05-06 09:54 | 7.26738 | 99.00282 | 28792 ft | 435 kts | 140° |
| 2026-05-06 09:55 | 7.24387 | 99.02208 | 29146 ft | 438 kts | 140° |
| 2026-05-06 09:55 | 7.22015 | 99.04151 | 29495 ft | 440 kts | 140° |
| 2026-05-06 09:55 | 7.19633 | 99.06102 | 29823 ft | 443 kts | 140° |
| 2026-05-06 09:55 | 7.17234 | 99.08067 | 30108 ft | 445 kts | 140° |
| 2026-05-06 09:56 | 7.14823 | 99.10041 | 30396 ft | 448 kts | 140° |
| 2026-05-06 09:56 | 7.12432 | 99.11999 | 30675 ft | 450 kts | 140° |
| 2026-05-06 09:56 | 7.09997 | 99.13992 | 30955 ft | 452 kts | 140° |
| 2026-05-06 09:56 | 7.07551 | 99.15994 | 31231 ft | 454 kts | 140° |
| 2026-05-06 09:57 | 7.05064 | 99.18030 | 31520 ft | 456 kts | 140° |
| 2026-05-06 09:57 | 7.02631 | 99.20021 | 31790 ft | 458 kts | 140° |
| 2026-05-06 09:57 | 7.00153 | 99.22048 | 32054 ft | 460 kts | 141° |
| 2026-05-06 09:57 | 6.97661 | 99.24087 | 32334 ft | 462 kts | 141° |
| 2026-05-06 09:58 | 6.95160 | 99.26132 | 32601 ft | 464 kts | 141° |
| 2026-05-06 09:58 | 6.92655 | 99.28181 | 32854 ft | 466 kts | 141° |
| 2026-05-06 09:58 | 6.90131 | 99.30245 | 33113 ft | 468 kts | 141° |
| 2026-05-06 09:58 | 6.87599 | 99.32315 | 33374 ft | 470 kts | 141° |
| 2026-05-06 09:59 | 6.85055 | 99.34395 | 33620 ft | 471 kts | 141° |
| 2026-05-06 09:59 | 6.83361 | 99.35779 | 33816 ft | 472 kts | 141° |
| 2026-05-06 09:59 | 6.80815 | 99.37861 | 34103 ft | 472 kts | 141° |
| 2026-05-06 09:59 | 6.77441 | 99.40618 | 34498 ft | 471 kts | 141° |
| 2026-05-06 10:00 | 6.74894 | 99.42699 | 34816 ft | 470 kts | 141° |
| 2026-05-06 10:00 | 6.73211 | 99.44074 | 35033 ft | 469 kts | 141° |
| 2026-05-06 10:00 | 6.69832 | 99.46834 | 35445 ft | 468 kts | 141° |
| 2026-05-06 10:00 | 6.69539 | 99.47073 | 35477 ft | 468 kts | 141° |
| 2026-05-06 10:01 | 6.66947 | 99.49190 | 35786 ft | 467 kts | 141° |
| 2026-05-06 10:01 | 6.63579 | 99.51940 | 36208 ft | 466 kts | 141° |
| 2026-05-06 10:01 | 6.61907 | 99.53305 | 36401 ft | 465 kts | 141° |
| 2026-05-06 10:01 | 6.59394 | 99.55356 | 36698 ft | 465 kts | 141° |
| 2026-05-06 10:02 | 6.54389 | 99.59442 | 36777 ft | 462 kts | 141° |
| 2026-05-06 10:02 | 6.49396 | 99.63516 | 36765 ft | 462 kts | 141° |
| 2026-05-06 10:03 | 6.44378 | 99.67502 | 36755 ft | 462 kts | 142° |
| 2026-05-06 10:03 | 6.39312 | 99.71494 | 36748 ft | 462 kts | 142° |
| 2026-05-06 10:04 | 6.34414 | 99.75662 | 36752 ft | 461 kts | 135° |
| 2026-05-06 10:04 | 6.29876 | 99.80244 | 36749 ft | 462 kts | 135° |
| 2026-05-06 10:05 | 6.25361 | 99.84856 | 36757 ft | 461 kts | 135° |
| 2026-05-06 10:05 | 6.20894 | 99.89427 | 36769 ft | 461 kts | 135° |
| 2026-05-06 10:06 | 6.16402 | 99.94021 | 36778 ft | 461 kts | 135° |
| 2026-05-06 10:06 | 6.11907 | 99.98617 | 36794 ft | 461 kts | 134° |
| 2026-05-06 10:07 | 6.07419 | 100.03206 | 36804 ft | 460 kts | 134° |
| 2026-05-06 10:07 | 6.02934 | 100.07790 | 36802 ft | 460 kts | 134° |
| 2026-05-06 10:08 | 5.98444 | 100.12377 | 36801 ft | 460 kts | 134° |
| 2026-05-06 10:08 | 5.93959 | 100.16959 | 36801 ft | 459 kts | 134° |
| 2026-05-06 10:09 | 5.89481 | 100.21532 | 36802 ft | 459 kts | 134° |
| 2026-05-06 10:09 | 5.85060 | 100.26046 | 36805 ft | 459 kts | 134° |
| 2026-05-06 10:10 | 5.80615 | 100.30584 | 36805 ft | 458 kts | 134° |
| 2026-05-06 10:10 | 5.76116 | 100.35174 | 36800 ft | 458 kts | 134° |
| 2026-05-06 10:11 | 5.71643 | 100.39738 | 36797 ft | 458 kts | 134° |
| 2026-05-06 10:11 | 5.67206 | 100.44265 | 36789 ft | 457 kts | 134° |
| 2026-05-06 10:12 | 5.62742 | 100.48817 | 36789 ft | 457 kts | 134° |
| 2026-05-06 10:12 | 5.58275 | 100.53372 | 36787 ft | 457 kts | 134° |
| 2026-05-06 10:13 | 5.53815 | 100.57918 | 36789 ft | 457 kts | 134° |
| 2026-05-06 10:13 | 5.49383 | 100.62435 | 36795 ft | 456 kts | 134° |
| 2026-05-06 10:14 | 5.44925 | 100.66977 | 36802 ft | 456 kts | 134° |
| 2026-05-06 10:14 | 5.40464 | 100.71499 | 36807 ft | 456 kts | 137° |
| 2026-05-06 10:15 | 5.37918 | 100.73392 | 36821 ft | 456 kts | 148° |
| 2026-05-06 10:15 | 5.35050 | 100.74747 | 36794 ft | 457 kts | 162° |
| 2026-05-06 10:15 | 5.28814 | 100.76163 | 36810 ft | 460 kts | 168° |
| 2026-05-06 10:16 | 5.22494 | 100.77269 | 36815 ft | 461 kts | 169° |
| 2026-05-06 10:16 | 5.16201 | 100.78286 | 36816 ft | 461 kts | 170° |
| 2026-05-06 10:17 | 5.09860 | 100.79290 | 36818 ft | 461 kts | 170° |
| 2026-05-06 10:17 | 5.03514 | 100.80293 | 36816 ft | 461 kts | 170° |
| 2026-05-06 10:18 | 4.97164 | 100.81296 | 36811 ft | 461 kts | 170° |
| 2026-05-06 10:18 | 4.90821 | 100.82299 | 36817 ft | 461 kts | 170° |
| 2026-05-06 10:19 | 4.84508 | 100.83296 | 36817 ft | 462 kts | 170° |
| 2026-05-06 10:19 | 4.78160 | 100.84298 | 36808 ft | 461 kts | 170° |
| 2026-05-06 10:20 | 4.71853 | 100.85295 | 36810 ft | 462 kts | 170° |
| 2026-05-06 10:20 | 4.65532 | 100.86293 | 36807 ft | 462 kts | 170° |
| 2026-05-06 10:21 | 4.59173 | 100.87297 | 36805 ft | 462 kts | 170° |
| 2026-05-06 10:21 | 4.52824 | 100.88299 | 36806 ft | 462 kts | 170° |
| 2026-05-06 10:22 | 4.46510 | 100.89468 | 36791 ft | 459 kts | 159° |
| 2026-05-06 10:22 | 4.40695 | 100.92022 | 36798 ft | 460 kts | 154° |
| 2026-05-06 10:23 | 4.34908 | 100.94765 | 36806 ft | 460 kts | 154° |
| 2026-05-06 10:23 | 4.29145 | 100.97560 | 36801 ft | 460 kts | 153° |
| 2026-05-06 10:24 | 4.23385 | 101.00365 | 36802 ft | 460 kts | 153° |
| 2026-05-06 10:24 | 4.17621 | 101.03172 | 36806 ft | 460 kts | 153° |
| 2026-05-06 10:25 | 4.11856 | 101.05978 | 36809 ft | 460 kts | 153° |
| 2026-05-06 10:25 | 4.06095 | 101.08782 | 36812 ft | 460 kts | 153° |
| 2026-05-06 10:26 | 4.00368 | 101.11570 | 36812 ft | 460 kts | 154° |
| 2026-05-06 10:26 | 3.94603 | 101.14375 | 36816 ft | 461 kts | 153° |
| 2026-05-06 10:27 | 3.88840 | 101.17179 | 36810 ft | 461 kts | 154° |
| 2026-05-06 10:27 | 3.85957 | 101.18581 | 36677 ft | 461 kts | 154° |
| 2026-05-06 10:27 | 3.83082 | 101.19980 | 36093 ft | 458 kts | 154° |
| 2026-05-06 10:28 | 3.80206 | 101.21379 | 35323 ft | 461 kts | 154° |
| 2026-05-06 10:28 | 3.77397 | 101.22950 | 34486 ft | 465 kts | 143° |
| 2026-05-06 10:28 | 3.75023 | 101.25152 | 33722 ft | 467 kts | 133° |
| 2026-05-06 10:28 | 3.72777 | 101.27481 | 33192 ft | 462 kts | 134° |
| 2026-05-06 10:29 | 3.70571 | 101.29786 | 32717 ft | 456 kts | 133° |
| 2026-05-06 10:29 | 3.68396 | 101.32085 | 32137 ft | 452 kts | 133° |
| 2026-05-06 10:29 | 3.66234 | 101.34384 | 31538 ft | 455 kts | 133° |
| 2026-05-06 10:29 | 3.64092 | 101.36665 | 30974 ft | 453 kts | 133° |
| 2026-05-06 10:30 | 3.61944 | 101.38954 | 30423 ft | 450 kts | 133° |
| 2026-05-06 10:30 | 3.59810 | 101.41229 | 29860 ft | 447 kts | 133° |
| 2026-05-06 10:30 | 3.57676 | 101.43504 | 29202 ft | 445 kts | 133° |
| 2026-05-06 10:30 | 3.55568 | 101.45751 | 28619 ft | 441 kts | 133° |
| 2026-05-06 10:31 | 3.53478 | 101.47978 | 28077 ft | 437 kts | 133° |
| 2026-05-06 10:31 | 3.51406 | 101.50185 | 27534 ft | 433 kts | 133° |
| 2026-05-06 10:31 | 3.49355 | 101.52371 | 26990 ft | 429 kts | 133° |
| 2026-05-06 10:31 | 3.47321 | 101.54539 | 26451 ft | 426 kts | 133° |
| 2026-05-06 10:32 | 3.45301 | 101.56691 | 25911 ft | 422 kts | 132° |
| 2026-05-06 10:32 | 3.43292 | 101.58830 | 25380 ft | 420 kts | 132° |
| 2026-05-06 10:32 | 3.42614 | 101.59552 | 25198 ft | 419 kts | 132° |
| 2026-05-06 10:32 | 3.40681 | 101.61612 | 24685 ft | 416 kts | 132° |
| 2026-05-06 10:33 | 3.38704 | 101.63718 | 24158 ft | 413 kts | 132° |
| 2026-05-06 10:33 | 3.36785 | 101.65762 | 23660 ft | 411 kts | 132° |
| 2026-05-06 10:33 | 3.34831 | 101.67843 | 23078 ft | 409 kts | 132° |
| 2026-05-06 10:33 | 3.32889 | 101.69911 | 22499 ft | 406 kts | 132° |
| 2026-05-06 10:34 | 3.30966 | 101.71959 | 21975 ft | 402 kts | 132° |
| 2026-05-06 10:34 | 3.29060 | 101.73989 | 21471 ft | 398 kts | 132° |
| 2026-05-06 10:34 | 3.27190 | 101.76004 | 20968 ft | 393 kts | 129° |
| 2026-05-06 10:34 | 3.25473 | 101.78115 | 20487 ft | 389 kts | 128° |
| 2026-05-06 10:35 | 3.23767 | 101.80203 | 20055 ft | 384 kts | 128° |
| 2026-05-06 10:35 | 3.22070 | 101.82267 | 19610 ft | 381 kts | 128° |
| 2026-05-06 10:35 | 3.20409 | 101.84280 | 19366 ft | 371 kts | 128° |
| 2026-05-06 10:35 | 3.18783 | 101.86249 | 19166 ft | 361 kts | 128° |
| 2026-05-06 10:36 | 3.17201 | 101.88163 | 18981 ft | 351 kts | 128° |
| 2026-05-06 10:36 | 3.15616 | 101.89950 | 18606 ft | 348 kts | 138° |
| 2026-05-06 10:36 | 3.13508 | 101.91194 | 18172 ft | 349 kts | 160° |
| 2026-05-06 10:36 | 3.11149 | 101.91586 | 17734 ft | 350 kts | 179° |
| 2026-05-06 10:37 | 3.08746 | 101.91251 | 17308 ft | 349 kts | 189° |
| 2026-05-06 10:37 | 3.06359 | 101.90813 | 16874 ft | 346 kts | 189° |
| 2026-05-06 10:37 | 3.04000 | 101.90367 | 16466 ft | 343 kts | 189° |
| 2026-05-06 10:37 | 3.01657 | 101.89919 | 16053 ft | 341 kts | 189° |
| 2026-05-06 10:38 | 2.99334 | 101.89471 | 15645 ft | 338 kts | 189° |
| 2026-05-06 10:38 | 2.97186 | 101.89055 | 15264 ft | 336 kts | 189° |
| 2026-05-06 10:38 | 2.95027 | 101.88637 | 14885 ft | 333 kts | 189° |
| 2026-05-06 10:38 | 2.92758 | 101.88197 | 14545 ft | 329 kts | 189° |
| 2026-05-06 10:39 | 2.90551 | 101.87769 | 14374 ft | 319 kts | 189° |
| 2026-05-06 10:39 | 2.88397 | 101.87351 | 14174 ft | 310 kts | 189° |
| 2026-05-06 10:39 | 2.86360 | 101.86679 | 13819 ft | 310 kts | 210° |
| 2026-05-06 10:39 | 2.84770 | 101.85220 | 13380 ft | 312 kts | 234° |
| 2026-05-06 10:40 | 2.83568 | 101.83416 | 12975 ft | 310 kts | 235° |
| 2026-05-06 10:40 | 2.82244 | 101.81732 | 12543 ft | 308 kts | 220° |
| 2026-05-06 10:40 | 2.80426 | 101.80712 | 12125 ft | 304 kts | 194° |
| 2026-05-06 10:40 | 2.78366 | 101.80587 | 11812 ft | 291 kts | 168° |
| 2026-05-06 10:41 | 2.76547 | 101.81271 | 11618 ft | 272 kts | 147° |
| 2026-05-06 10:41 | 2.74980 | 101.82256 | 11342 ft | 263 kts | 146° |
| 2026-05-06 10:41 | 2.73418 | 101.83257 | 11012 ft | 270 kts | 146° |
| 2026-05-06 10:41 | 2.71824 | 101.84296 | 10663 ft | 276 kts | 146° |
| 2026-05-06 10:42 | 2.70211 | 101.85360 | 10311 ft | 278 kts | 146° |
| 2026-05-06 10:42 | 2.68589 | 101.86437 | 9963 ft | 278 kts | 145° |
| 2026-05-06 10:42 | 2.66998 | 101.87499 | 9618 ft | 278 kts | 145° |
| 2026-05-06 10:42 | 2.65402 | 101.88567 | 9375 ft | 271 kts | 145° |
| 2026-05-06 10:43 | 2.63861 | 101.89599 | 9203 ft | 262 kts | 145° |
| 2026-05-06 10:43 | 2.62363 | 101.90603 | 9025 ft | 255 kts | 145° |
| 2026-05-06 10:43 | 2.60890 | 101.91590 | 8688 ft | 254 kts | 145° |
| 2026-05-06 10:44 | 2.57953 | 101.93559 | 8031 ft | 253 kts | 144° |
| 2026-05-06 10:44 | 2.56492 | 101.94537 | 7711 ft | 252 kts | 145° |
| 2026-05-06 10:44 | 2.54977 | 101.95417 | 7361 ft | 253 kts | 160° |
| 2026-05-06 10:44 | 2.53227 | 101.95549 | 6986 ft | 256 kts | 192° |
| 2026-05-06 10:45 | 2.51649 | 101.94774 | 6712 ft | 253 kts | 222° |
| 2026-05-06 10:45 | 2.50658 | 101.93379 | 6542 ft | 244 kts | 250° |
| 2026-05-06 10:45 | 2.50467 | 101.91739 | 6333 ft | 235 kts | 280° |
| 2026-05-06 10:45 | 2.50930 | 101.90224 | 6096 ft | 230 kts | 296° |
| 2026-05-06 10:46 | 2.51778 | 101.88871 | 5765 ft | 230 kts | 313° |
| 2026-05-06 10:46 | 2.52894 | 101.87735 | 5377 ft | 228 kts | 318° |
| 2026-05-06 10:46 | 2.53996 | 101.86596 | 5012 ft | 227 kts | 316° |
| 2026-05-06 10:46 | 2.55176 | 101.85558 | 4678 ft | 225 kts | 323° |
| 2026-05-06 10:47 | 2.56431 | 101.84637 | 4443 ft | 223 kts | 327° |
| 2026-05-06 10:47 | 2.57705 | 101.83765 | 4086 ft | 227 kts | 327° |
| 2026-05-06 10:47 | 2.59024 | 101.82878 | 3732 ft | 229 kts | 327° |
| 2026-05-06 10:47 | 2.60353 | 101.81983 | 3397 ft | 230 kts | 327° |
| 2026-05-06 10:48 | 2.61681 | 101.81087 | 3070 ft | 231 kts | 327° |
| 2026-05-06 10:48 | 2.63016 | 101.80187 | 2757 ft | 232 kts | 326° |
| 2026-05-06 10:48 | 2.64352 | 101.79286 | 2454 ft | 231 kts | 326° |
| 2026-05-06 10:48 | 2.65676 | 101.78394 | 2152 ft | 226 kts | 326° |
| 2026-05-06 10:49 | 2.66529 | 101.77819 | 1956 ft | 221 kts | 325° |
| 2026-05-06 10:49 | 2.67779 | 101.76976 | 1673 ft | 211 kts | 325° |
| 2026-05-06 10:49 | 2.68964 | 101.76177 | 1403 ft | 200 kts | 324° |
| 2026-05-06 10:49 | 2.70081 | 101.75425 | 1143 ft | 186 kts | 325° |
| 2026-05-06 10:50 | 2.71097 | 101.74739 | 934 ft | 166 kts | 325° |
| 2026-05-06 10:50 | 2.71998 | 101.74131 | 759 ft | 148 kts | 325° |
| 2026-05-06 10:50 | 2.73093 | 101.73394 | 525 ft | 143 kts | 326° |
| 2026-05-06 10:50 | 2.73646 | 101.73021 | 413 ft | 142 kts | 326° |
| 2026-05-06 10:51 | 2.74449 | 101.72466 | 203 ft | 141 kts | 327° |
| 2026-05-06 10:51 | 2.75249 | 101.71933 | 90 ft | 131 kts | 327° |
| 2026-05-06 10:51 | 2.75923 | 101.71478 | 69 ft | 93 kts | 326° |
| 2026-05-06 10:51 | 2.76277 | 101.71240 | 69 ft | 42 kts | 326° |
| 2026-05-06 10:52 | 2.76485 | 101.71075 | 70 ft | 29 kts | 316° |
| 2026-05-06 10:52 | 2.76548 | 101.70983 | 68 ft | 15 kts | 294° |
| 2026-05-06 10:52 | 2.76576 | 101.70874 | 68 ft | 18 kts | 245° |
| 2026-05-06 10:52 | 2.76474 | 101.70879 | 65 ft | 17 kts | 145° |
| 2026-05-06 10:53 | 2.76367 | 101.70951 | 67 ft | 20 kts | 146° |
| 2026-05-06 10:53 | 2.76241 | 101.71023 | 65 ft | 22 kts | 166° |
| 2026-05-06 10:53 | 2.76090 | 101.71049 | 65 ft | 22 kts | 168° |
| 2026-05-06 10:53 | 2.75945 | 101.71121 | 70 ft | 24 kts | 145° |
| 2026-05-06 10:54 | 2.75799 | 101.71219 | 71 ft | 26 kts | 146° |
| 2026-05-06 10:54 | 2.75649 | 101.71319 | 72 ft | 23 kts | 146° |
| 2026-05-06 10:54 | 2.75509 | 101.71413 | 75 ft | 25 kts | 146° |
| 2026-05-06 10:54 | 2.75358 | 101.71515 | 68 ft | 24 kts | 146° |
| 2026-05-06 10:55 | 2.75217 | 101.71610 | 75 ft | 21 kts | 146° |
| 2026-05-06 10:55 | 2.75090 | 101.71695 | 71 ft | 23 kts | 147° |
| 2026-05-06 10:55 | 2.74950 | 101.71789 | 77 ft | 25 kts | 146° |
| 2026-05-06 10:55 | 2.74802 | 101.71888 | 81 ft | 27 kts | 145° |
| 2026-05-06 10:56 | 2.74684 | 101.71945 | 72 ft | 17 kts | 199° |
| 2026-05-06 10:56 | 2.74605 | 101.71851 | 72 ft | 20 kts | 235° |
| 2026-05-06 10:56 | 2.74523 | 101.71730 | 73 ft | 22 kts | 236° |
| 2026-05-06 10:56 | 2.74431 | 101.71594 | 67 ft | 25 kts | 236° |
| 2026-05-06 10:57 | 2.74324 | 101.71510 | 75 ft | 20 kts | 176° |
| 2026-05-06 10:57 | 2.74197 | 101.71583 | 71 ft | 19 kts | 147° |
| 2026-05-06 10:57 | 2.74113 | 101.71611 | 67 ft | 13 kts | 201° |
| 2026-05-06 10:57 | 2.74049 | 101.71534 | 74 ft | 16 kts | 236° |
| 2026-05-06 10:58 | 2.73982 | 101.71433 | 73 ft | 19 kts | 236° |
| 2026-05-06 10:58 | 2.73904 | 101.71316 | 72 ft | 22 kts | 236° |
| 2026-05-06 10:58 | 2.73814 | 101.71184 | 75 ft | 24 kts | 236° |
| 2026-05-06 10:58 | 2.73716 | 101.71039 | 75 ft | 27 kts | 236° |
| 2026-05-06 10:59 | 2.73620 | 101.70897 | 73 ft | 15 kts | 236° |
| 2026-05-06 10:59 | 2.73553 | 101.70802 | 70 ft | 20 kts | 234° |
| 2026-05-06 10:59 | 2.73529 | 101.70671 | 59 ft | 17 kts | 317° |
| 2026-05-06 10:59 | 2.73635 | 101.70602 | 63 ft | 19 kts | 326° |
| 2026-05-06 11:00 | 2.73760 | 101.70520 | 60 ft | 23 kts | 327° |
| 2026-05-06 11:00 | 2.73903 | 101.70424 | 60 ft | 26 kts | 327° |
| 2026-05-06 11:00 | 2.74052 | 101.70323 | 59 ft | 27 kts | 326° |
| 2026-05-06 11:00 | 2.74211 | 101.70217 | 59 ft | 28 kts | 326° |
| 2026-05-06 11:01 | 2.74358 | 101.70119 | 59 ft | 24 kts | 326° |
| 2026-05-06 11:01 | 2.74473 | 101.70042 | 65 ft | 14 kts | 332° |
| 2026-05-06 11:01 | 2.74560 | 101.70072 | 66 ft | 15 kts | 53° |
| 2026-05-06 11:01 | 2.74627 | 101.70161 | 65 ft | 17 kts | 36° |
| 2026-05-06 11:02 | 2.74708 | 101.70152 | 71 ft | 11 kts | 328° |
| 2026-05-06 11:02 | 2.74777 | 101.70106 | 75 ft | 14 kts | 326° |
| 2026-05-06 11:02 | 2.74864 | 101.70048 | 70 ft | 16 kts | 326° |
| 2026-05-06 11:02 | 2.74965 | 101.69982 | 75 ft | 17 kts | 335° |
| 2026-05-06 11:03 | 2.75053 | 101.70045 | 75 ft | 18 kts | 56° |
| 2026-05-06 11:03 | 2.75126 | 101.70154 | 73 ft | 13 kts | 57° |
| 2026-05-06 11:03 | 2.75148 | 101.70201 | 74 ft | 2 kts | 103° |
| 2026-05-06 11:03 | 2.75138 | 101.70212 | 69 ft | 3 kts | 143° |
| 2026-05-06 11:04 | 2.75125 | 101.70221 | 72 ft | 1 kts | 145° |
| 2026-05-06 11:04 | 2.75124 | 101.70221 | 72 ft | 0 kts | 145° |